sensor_id;sensor_type;location;lat;lon;timestamp;pressure;altitude;pressure_sealevel;temperature;humidity
72925;BME280;61070;50.794;7.054;2023-05-16T00:00:33;100853.66;;;11.93;96.85
72925;BME280;61070;50.794;7.054;2023-05-16T00:03:00;100846.47;;;11.99;96.90
72925;BME280;61070;50.794;7.054;2023-05-16T00:05:25;100844.53;;;12.10;96.69
72925;BME280;61070;50.794;7.054;2023-05-16T00:07:51;100851.56;;;12.14;96.69
72925;BME280;61070;50.794;7.054;2023-05-16T00:10:16;100845.25;;;12.19;97.04
72925;BME280;61070;50.794;7.054;2023-05-16T00:12:41;100854.38;;;12.03;98.90
72925;BME280;61070;50.794;7.054;2023-05-16T00:15:09;100851.69;;;12.05;99.72
72925;BME280;61070;50.794;7.054;2023-05-16T00:17:37;100842.81;;;12.07;99.92
72925;BME280;61070;50.794;7.054;2023-05-16T00:20:02;100851.69;;;12.05;100.00
72925;BME280;61070;50.794;7.054;2023-05-16T00:22:35;100858.13;;;11.88;100.00
72925;BME280;61070;50.794;7.054;2023-05-16T00:25:00;100854.81;;;11.71;100.00
72925;BME280;61070;50.794;7.054;2023-05-16T00:27:26;100855.03;;;11.57;100.00
72925;BME280;61070;50.794;7.054;2023-05-16T00:29:51;100857.47;;;11.71;100.00
72925;BME280;61070;50.794;7.054;2023-05-16T00:32:17;100855.63;;;11.79;100.00
72925;BME280;61070;50.794;7.054;2023-05-16T00:34:42;100853.28;;;11.53;100.00
72925;BME280;61070;50.794;7.054;2023-05-16T00:37:08;100853.94;;;11.71;100.00
72925;BME280;61070;50.794;7.054;2023-05-16T00:39:33;100855.03;;;11.54;100.00
72925;BME280;61070;50.794;7.054;2023-05-16T00:41:58;100853.44;;;11.44;100.00
72925;BME280;61070;50.794;7.054;2023-05-16T00:44:24;100846.38;;;11.42;100.00
72925;BME280;61070;50.794;7.054;2023-05-16T00:46:49;100850.59;;;11.55;100.00
72925;BME280;61070;50.794;7.054;2023-05-16T00:49:14;100849.81;;;11.50;100.00
72925;BME280;61070;50.794;7.054;2023-05-16T00:51:40;100850.78;;;11.44;100.00
72925;BME280;61070;50.794;7.054;2023-05-16T00:54:06;100854.38;;;11.38;100.00
72925;BME280;61070;50.794;7.054;2023-05-16T00:56:32;100853.50;;;11.38;100.00
72925;BME280;61070;50.794;7.054;2023-05-16T00:58:57;100846.47;;;11.32;100.00
72925;BME280;61070;50.794;7.054;2023-05-16T01:01:24;100849.22;;;11.26;100.00
72925;BME280;61070;50.794;7.054;2023-05-16T01:03:51;100850.25;;;11.15;100.00
72925;BME280;61070;50.794;7.054;2023-05-16T01:06:16;100850.16;;;11.24;100.00
72925;BME280;61070;50.794;7.054;2023-05-16T01:08:41;100849.28;;;11.23;100.00
72925;BME280;61070;50.794;7.054;2023-05-16T01:11:21;100847.53;;;11.19;100.00
72925;BME280;61070;50.794;7.054;2023-05-16T01:20:06;100858.28;;;11.10;100.00
72925;BME280;61070;50.794;7.054;2023-05-16T01:27:41;100858.91;;;11.29;100.00
72925;BME280;61070;50.794;7.054;2023-05-16T01:30:18;100859.16;;;11.07;100.00
72925;BME280;61070;50.794;7.054;2023-05-16T01:32:43;100862.72;;;11.06;100.00
72925;BME280;61070;50.794;7.054;2023-05-16T01:35:11;100858.19;;;11.16;100.00
72925;BME280;61070;50.794;7.054;2023-05-16T01:37:47;100858.25;;;11.08;100.00
72925;BME280;61070;50.794;7.054;2023-05-16T01:40:35;100857.47;;;11.02;100.00
72925;BME280;61070;50.794;7.054;2023-05-16T01:43:07;100863.69;;;10.98;100.00
72925;BME280;61070;50.794;7.054;2023-05-16T01:45:36;100856.75;;;10.88;100.00
72925;BME280;61070;50.794;7.054;2023-05-16T01:48:06;100864.66;;;10.91;100.00
72925;BME280;61070;50.794;7.054;2023-05-16T01:50:35;100866.41;;;10.92;100.00
72925;BME280;61070;50.794;7.054;2023-05-16T01:53:06;100872.53;;;11.00;100.00
72925;BME280;61070;50.794;7.054;2023-05-16T01:55:46;100877.16;;;10.79;100.00
72925;BME280;61070;50.794;7.054;2023-05-16T01:58:13;100878.03;;;10.78;100.00
72925;BME280;61070;50.794;7.054;2023-05-16T02:00:40;100881.50;;;10.84;100.00
72925;BME280;61070;50.794;7.054;2023-05-16T02:03:06;100875.25;;;10.91;100.00
72925;BME280;61070;50.794;7.054;2023-05-16T02:05:31;100878.84;;;10.84;100.00
72925;BME280;61070;50.794;7.054;2023-05-16T02:07:58;100882.47;;;10.76;100.00
72925;BME280;61070;50.794;7.054;2023-05-16T02:10:23;100879.84;;;10.76;100.00
72925;BME280;61070;50.794;7.054;2023-05-16T02:12:49;100881.78;;;10.56;100.00
72925;BME280;61070;50.794;7.054;2023-05-16T02:15:14;100902.09;;;10.56;100.00
72925;BME280;61070;50.794;7.054;2023-05-16T02:17:40;100893.25;;;10.57;100.00
72925;BME280;61070;50.794;7.054;2023-05-16T02:20:06;100902.97;;;10.56;100.00
72925;BME280;61070;50.794;7.054;2023-05-16T02:22:33;100899.50;;;10.48;100.00
72925;BME280;61070;50.794;7.054;2023-05-16T02:25:01;100908.41;;;10.39;100.00
72925;BME280;61070;50.794;7.054;2023-05-16T02:27:30;100918.16;;;10.33;100.00
72925;BME280;61070;50.794;7.054;2023-05-16T02:29:56;100927.00;;;10.29;100.00
72925;BME280;61070;50.794;7.054;2023-05-16T02:32:21;100922.63;;;10.18;100.00
72925;BME280;61070;50.794;7.054;2023-05-16T02:34:46;100927.06;;;10.19;100.00
72925;BME280;61070;50.794;7.054;2023-05-16T02:37:12;100930.72;;;9.97;100.00
72925;BME280;61070;50.794;7.054;2023-05-16T02:39:37;100930.63;;;10.12;100.00
72925;BME280;61070;50.794;7.054;2023-05-16T02:42:03;100930.63;;;10.11;100.00
72925;BME280;61070;50.794;7.054;2023-05-16T02:44:29;100932.38;;;10.15;100.00
72925;BME280;61070;50.794;7.054;2023-05-16T02:46:54;100927.00;;;10.30;100.00
72925;BME280;61070;50.794;7.054;2023-05-16T02:49:19;100945.59;;;10.24;100.00
72925;BME280;61070;50.794;7.054;2023-05-16T02:51:45;100936.84;;;10.02;100.00
72925;BME280;61070;50.794;7.054;2023-05-16T02:54:11;100955.44;;;9.93;100.00
72925;BME280;61070;50.794;7.054;2023-05-16T02:56:36;100954.59;;;9.83;100.00
72925;BME280;61070;50.794;7.054;2023-05-16T02:59:02;100965.19;;;9.80;100.00
72925;BME280;61070;50.794;7.054;2023-05-16T03:01:28;100952.91;;;9.62;100.00
72925;BME280;61070;50.794;7.054;2023-05-16T03:03:53;100954.72;;;9.57;100.00
72925;BME280;61070;50.794;7.054;2023-05-16T03:06:19;100962.63;;;9.67;100.00
72925;BME280;61070;50.794;7.054;2023-05-16T03:08:45;100969.69;;;9.57;100.00
72925;BME280;61070;50.794;7.054;2023-05-16T03:11:11;100972.31;;;9.61;100.00
72925;BME280;61070;50.794;7.054;2023-05-16T03:13:36;100976.81;;;9.38;100.00
72925;BME280;61070;50.794;7.054;2023-05-16T03:16:02;100975.06;;;9.40;100.00
72925;BME280;61070;50.794;7.054;2023-05-16T03:18:27;100974.19;;;9.32;100.00
72925;BME280;61070;50.794;7.054;2023-05-16T03:20:53;100973.31;;;9.31;100.00
72925;BME280;61070;50.794;7.054;2023-05-16T03:23:19;100982.09;;;9.27;100.00
72925;BME280;61070;50.794;7.054;2023-05-16T03:25:45;100986.56;;;9.21;100.00
72925;BME280;61070;50.794;7.054;2023-05-16T03:28:10;100987.41;;;9.27;100.00
72925;BME280;61070;50.794;7.054;2023-05-16T03:30:35;100984.75;;;9.33;100.00
72925;BME280;61070;50.794;7.054;2023-05-16T03:33:01;100996.22;;;9.26;100.00
72925;BME280;61070;50.794;7.054;2023-05-16T03:35:30;100984.75;;;9.27;100.00
72925;BME280;61070;50.794;7.054;2023-05-16T03:37:56;100989.19;;;9.22;100.00
72925;BME280;61070;50.794;7.054;2023-05-16T03:40:21;100999.72;;;9.39;100.00
72925;BME280;61070;50.794;7.054;2023-05-16T03:42:46;101004.16;;;9.16;100.00
72925;BME280;61070;50.794;7.054;2023-05-16T03:45:12;101005.91;;;9.26;100.00
72925;BME280;61070;50.794;7.054;2023-05-16T03:47:37;101012.09;;;9.20;100.00
72925;BME280;61070;50.794;7.054;2023-05-16T03:50:03;101012.06;;;9.32;100.00
72925;BME280;61070;50.794;7.054;2023-05-16T03:52:29;101017.34;;;9.37;100.00
72925;BME280;61070;50.794;7.054;2023-05-16T03:54:54;101023.53;;;9.15;100.00
72925;BME280;61070;50.794;7.054;2023-05-16T03:57:19;101021.78;;;9.11;100.00
72925;BME280;61070;50.794;7.054;2023-05-16T03:59:45;101030.59;;;9.19;100.00
72925;BME280;61070;50.794;7.054;2023-05-16T04:02:10;101039.41;;;9.01;100.00
72925;BME280;61070;50.794;7.054;2023-05-16T04:04:36;101037.66;;;9.06;100.00
72925;BME280;61070;50.794;7.054;2023-05-16T04:07:01;101035.00;;;9.14;100.00
72925;BME280;61070;50.794;7.054;2023-05-16T04:09:27;101040.31;;;9.09;100.00
72925;BME280;61070;50.794;7.054;2023-05-16T04:11:52;101035.00;;;8.91;100.00
72925;BME280;61070;50.794;7.054;2023-05-16T04:14:19;101043.81;;;8.97;100.00
72925;BME280;61070;50.794;7.054;2023-05-16T04:16:45;101042.94;;;8.88;100.00
72925;BME280;61070;50.794;7.054;2023-05-16T04:19:10;101046.44;;;8.91;100.00
72925;BME280;61070;50.794;7.054;2023-05-16T04:21:35;101049.09;;;8.91;100.00
72925;BME280;61070;50.794;7.054;2023-05-16T04:24:01;101048.22;;;9.01;100.00
72925;BME280;61070;50.794;7.054;2023-05-16T04:26:26;101053.50;;;8.91;100.00
72925;BME280;61070;50.794;7.054;2023-05-16T04:28:52;101053.50;;;9.01;100.00
72925;BME280;61070;50.794;7.054;2023-05-16T04:31:17;101052.63;;;8.99;100.00
72925;BME280;61070;50.794;7.054;2023-05-16T04:33:42;101054.38;;;8.94;100.00
72925;BME280;61070;50.794;7.054;2023-05-16T04:36:08;101062.28;;;8.94;100.00
72925;BME280;61070;50.794;7.054;2023-05-16T04:38:33;101062.31;;;9.03;100.00
72925;BME280;61070;50.794;7.054;2023-05-16T04:40:58;101069.38;;;8.95;100.00
72925;BME280;61070;50.794;7.054;2023-05-16T04:43:24;101068.47;;;8.89;100.00
72925;BME280;61070;50.794;7.054;2023-05-16T04:45:50;101075.50;;;8.90;100.00
72925;BME280;61070;50.794;7.054;2023-05-16T04:48:18;101078.16;;;8.76;100.00
72925;BME280;61070;50.794;7.054;2023-05-16T04:50:43;101079.00;;;8.72;100.00
72925;BME280;61070;50.794;7.054;2023-05-16T04:53:08;101085.19;;;8.88;100.00
72925;BME280;61070;50.794;7.054;2023-05-16T04:55:34;101094.00;;;8.79;100.00
72925;BME280;61070;50.794;7.054;2023-05-16T04:57:59;101089.59;;;8.77;100.00
72925;BME280;61070;50.794;7.054;2023-05-16T05:00:25;101093.13;;;8.92;100.00
72925;BME280;61070;50.794;7.054;2023-05-16T05:02:51;101093.13;;;8.89;100.00
72925;BME280;61070;50.794;7.054;2023-05-16T05:05:16;101099.28;;;8.78;100.00
72925;BME280;61070;50.794;7.054;2023-05-16T05:07:41;101106.31;;;8.83;100.00
72925;BME280;61070;50.794;7.054;2023-05-16T05:10:07;101103.69;;;8.86;100.00
72925;BME280;61070;50.794;7.054;2023-05-16T05:12:34;101116.00;;;8.80;100.00
72925;BME280;61070;50.794;7.054;2023-05-16T05:14:59;101117.75;;;8.82;100.00
72925;BME280;61070;50.794;7.054;2023-05-16T05:17:25;101117.78;;;8.88;100.00
72925;BME280;61070;50.794;7.054;2023-05-16T05:19:50;101121.31;;;8.86;100.00
72925;BME280;61070;50.794;7.054;2023-05-16T05:22:16;101127.44;;;8.83;100.00
72925;BME280;61070;50.794;7.054;2023-05-16T05:24:41;101123.94;;;8.77;100.00
72925;BME280;61070;50.794;7.054;2023-05-16T05:27:06;101130.13;;;8.97;100.00
72925;BME280;61070;50.794;7.054;2023-05-16T05:29:32;101135.38;;;8.83;100.00
72925;BME280;61070;50.794;7.054;2023-05-16T05:31:58;101140.69;;;8.94;100.00
72925;BME280;61070;50.794;7.054;2023-05-16T05:34:23;101147.72;;;8.87;100.00
72925;BME280;61070;50.794;7.054;2023-05-16T05:36:48;101156.53;;;8.85;100.00
72925;BME280;61070;50.794;7.054;2023-05-16T05:39:13;101153.88;;;8.91;100.00
72925;BME280;61070;50.794;7.054;2023-05-16T05:41:39;101168.81;;;8.81;100.00
72925;BME280;61070;50.794;7.054;2023-05-16T05:44:05;101157.38;;;8.76;100.00
72925;BME280;61070;50.794;7.054;2023-05-16T05:46:31;101164.38;;;8.62;100.00
72925;BME280;61070;50.794;7.054;2023-05-16T05:48:57;101166.22;;;8.86;100.00
72925;BME280;61070;50.794;7.054;2023-05-16T05:51:23;101167.94;;;8.82;100.00
72925;BME280;61070;50.794;7.054;2023-05-16T05:53:48;101174.91;;;8.53;100.00
72925;BME280;61070;50.794;7.054;2023-05-16T05:56:14;101181.03;;;8.45;100.00
72925;BME280;61070;50.794;7.054;2023-05-16T05:58:39;101177.56;;;8.60;100.00
72925;BME280;61070;50.794;7.054;2023-05-16T06:01:06;101178.50;;;8.73;100.00
72925;BME280;61070;50.794;7.054;2023-05-16T06:03:31;101180.19;;;8.59;100.00
72925;BME280;61070;50.794;7.054;2023-05-16T06:05:56;101180.19;;;8.56;100.00
72925;BME280;61070;50.794;7.054;2023-05-16T06:08:22;101185.50;;;8.65;100.00
72925;BME280;61070;50.794;7.054;2023-05-16T06:10:47;101186.47;;;8.84;100.00
72925;BME280;61070;50.794;7.054;2023-05-16T06:13:12;101196.22;;;9.09;100.00
72925;BME280;61070;50.794;7.054;2023-05-16T06:15:38;101200.63;;;9.07;100.00
72925;BME280;61070;50.794;7.054;2023-05-16T06:18:03;101207.69;;;9.20;100.00
72925;BME280;61070;50.794;7.054;2023-05-16T06:20:28;101205.06;;;9.19;98.89
72925;BME280;61070;50.794;7.054;2023-05-16T06:22:53;101205.06;;;9.29;99.02
72925;BME280;61070;50.794;7.054;2023-05-16T06:25:19;101212.13;;;9.32;98.68
72925;BME280;61070;50.794;7.054;2023-05-16T06:27:44;101216.50;;;9.24;97.42
72925;BME280;61070;50.794;7.054;2023-05-16T06:30:10;101210.38;;;9.42;99.06
72925;BME280;61070;50.794;7.054;2023-05-16T06:32:35;101212.16;;;9.53;99.34
72925;BME280;61070;50.794;7.054;2023-05-16T06:35:01;101211.22;;;9.33;97.62
72925;BME280;61070;50.794;7.054;2023-05-16T06:37:26;101208.63;;;9.53;96.04
72925;BME280;61070;50.794;7.054;2023-05-16T06:39:52;101206.84;;;9.53;95.25
72925;BME280;61070;50.794;7.054;2023-05-16T06:42:17;101213.03;;;9.66;93.29
72925;BME280;61070;50.794;7.054;2023-05-16T06:44:44;101213.00;;;9.45;90.66
72925;BME280;61070;50.794;7.054;2023-05-16T06:47:09;101213.03;;;9.54;92.12
72925;BME280;61070;50.794;7.054;2023-05-16T06:49:35;101213.91;;;9.42;91.44
72925;BME280;61070;50.794;7.054;2023-05-16T06:52:01;101221.78;;;9.27;91.39
72925;BME280;61070;50.794;7.054;2023-05-16T06:54:26;101221.81;;;9.34;93.34
72925;BME280;61070;50.794;7.054;2023-05-16T06:56:51;101229.78;;;9.67;93.74
72925;BME280;61070;50.794;7.054;2023-05-16T06:59:17;101224.50;;;9.51;90.15
72925;BME280;61070;50.794;7.054;2023-05-16T07:01:42;101229.75;;;9.41;89.75
72925;BME280;61070;50.794;7.054;2023-05-16T07:04:07;101228.91;;;9.52;88.80
72925;BME280;61070;50.794;7.054;2023-05-16T07:06:32;101227.13;;;9.80;89.89
72925;BME280;61070;50.794;7.054;2023-05-16T07:08:58;101226.22;;;9.92;89.80
72925;BME280;61070;50.794;7.054;2023-05-16T07:11:23;101224.50;;;9.76;85.96
72925;BME280;61070;50.794;7.054;2023-05-16T07:13:49;101229.78;;;9.51;87.49
72925;BME280;61070;50.794;7.054;2023-05-16T07:16:14;101228.00;;;9.59;87.19
72925;BME280;61070;50.794;7.054;2023-05-16T07:18:39;101229.78;;;9.56;85.56
72925;BME280;61070;50.794;7.054;2023-05-16T07:21:04;101234.16;;;9.83;84.63
72925;BME280;61070;50.794;7.054;2023-05-16T07:23:30;101238.59;;;9.78;83.41
72925;BME280;61070;50.794;7.054;2023-05-16T07:25:56;101232.41;;;9.92;84.10
72925;BME280;61070;50.794;7.054;2023-05-16T07:28:21;101236.81;;;9.89;83.42
72925;BME280;61070;50.794;7.054;2023-05-16T07:30:47;101241.22;;;9.93;83.68
72925;BME280;61070;50.794;7.054;2023-05-16T07:33:13;101239.47;;;9.87;82.58
72925;BME280;61070;50.794;7.054;2023-05-16T07:35:38;101239.47;;;10.00;83.49
72925;BME280;61070;50.794;7.054;2023-05-16T07:38:04;101246.53;;;9.78;82.73
72925;BME280;61070;50.794;7.054;2023-05-16T07:40:29;101243.00;;;9.77;81.16
72925;BME280;61070;50.794;7.054;2023-05-16T07:42:55;101248.31;;;9.86;82.07
72925;BME280;61070;50.794;7.054;2023-05-16T07:45:20;101247.41;;;10.04;82.14
72925;BME280;61070;50.794;7.054;2023-05-16T07:47:45;101246.53;;;10.08;82.18
72925;BME280;61070;50.794;7.054;2023-05-16T07:50:11;101244.75;;;10.06;77.63
72925;BME280;61070;50.794;7.054;2023-05-16T07:52:36;101242.97;;;10.20;78.37
72925;BME280;61070;50.794;7.054;2023-05-16T07:55:02;101236.75;;;10.48;76.03
72925;BME280;61070;50.794;7.054;2023-05-16T07:57:27;101248.22;;;10.55;74.08
72925;BME280;61070;50.794;7.054;2023-05-16T07:59:53;101244.72;;;10.36;76.04
72925;BME280;61070;50.794;7.054;2023-05-16T08:02:19;101249.06;;;10.69;76.82
72925;BME280;61070;50.794;7.054;2023-05-16T08:04:45;101242.72;;;10.98;75.17
72925;BME280;61070;50.794;7.054;2023-05-16T08:07:10;101243.66;;;10.94;74.03
72925;BME280;61070;50.794;7.054;2023-05-16T08:09:36;101241.84;;;11.02;73.13
72925;BME280;61070;50.794;7.054;2023-05-16T08:12:01;101247.13;;;11.06;73.72
72925;BME280;61070;50.794;7.054;2023-05-16T08:14:29;101245.34;;;11.07;71.54
72925;BME280;61070;50.794;7.054;2023-05-16T08:16:57;101249.63;;;11.34;73.00
72925;BME280;61070;50.794;7.054;2023-05-16T08:19:22;101247.06;;;11.17;70.75
72925;BME280;61070;50.794;7.054;2023-05-16T08:21:47;101242.78;;;10.92;71.83
72925;BME280;61070;50.794;7.054;2023-05-16T08:24:12;101248.97;;;10.92;71.85
72925;BME280;61070;50.794;7.054;2023-05-16T08:26:38;101258.66;;;10.96;71.63
72925;BME280;61070;50.794;7.054;2023-05-16T08:29:03;101258.69;;;10.92;72.59
72925;BME280;61070;50.794;7.054;2023-05-16T08:31:28;101258.63;;;11.02;73.50
72925;BME280;61070;50.794;7.054;2023-05-16T08:33:54;101259.44;;;11.17;72.68
72925;BME280;61070;50.794;7.054;2023-05-16T08:36:19;101255.81;;;11.36;72.06
72925;BME280;61070;50.794;7.054;2023-05-16T08:38:45;101255.28;;;12.06;73.31
72925;BME280;61070;50.794;7.054;2023-05-16T08:41:10;101253.28;;;12.30;68.41
72925;BME280;61070;50.794;7.054;2023-05-16T08:43:35;101254.00;;;12.45;69.31
72925;BME280;61070;50.794;7.054;2023-05-16T08:46:01;101249.50;;;12.52;65.50
72925;BME280;61070;50.794;7.054;2023-05-16T08:48:27;101248.69;;;12.45;65.76
72925;BME280;61070;50.794;7.054;2023-05-16T08:50:53;101248.63;;;12.53;65.71
72925;BME280;61070;50.794;7.054;2023-05-16T08:53:21;101245.38;;;12.27;63.73
72925;BME280;61070;50.794;7.054;2023-05-16T08:55:48;101255.19;;;12.17;65.90
72925;BME280;61070;50.794;7.054;2023-05-16T08:58:15;101245.50;;;12.11;65.41
72925;BME280;61070;50.794;7.054;2023-05-16T09:00:41;101243.63;;;12.24;65.44
72925;BME280;61070;50.794;7.054;2023-05-16T09:03:06;101240.41;;;12.74;64.44
72925;BME280;61070;50.794;7.054;2023-05-16T09:05:32;101239.53;;;12.74;64.50
72925;BME280;61070;50.794;7.054;2023-05-16T09:07:57;101239.72;;;12.59;64.67
72925;BME280;61070;50.794;7.054;2023-05-16T09:10:23;101236.47;;;12.29;67.10
72925;BME280;61070;50.794;7.054;2023-05-16T09:12:49;101239.97;;;12.36;68.46
72925;BME280;61070;50.794;7.054;2023-05-16T09:15:17;101240.03;;;12.28;68.57
72925;BME280;61070;50.794;7.054;2023-05-16T09:17:44;101240.84;;;12.36;68.36
72925;BME280;61070;50.794;7.054;2023-05-16T09:20:15;101243.72;;;12.93;68.07
72925;BME280;61070;50.794;7.054;2023-05-16T09:22:54;101234.91;;;12.88;67.34
72925;BME280;61070;50.794;7.054;2023-05-16T09:25:21;101246.94;;;13.17;66.54
72925;BME280;61070;50.794;7.054;2023-05-16T09:27:48;101241.88;;;12.98;64.93
72925;BME280;61070;50.794;7.054;2023-05-16T09:30:20;101236.94;;;13.37;65.56
72925;BME280;61070;50.794;7.054;2023-05-16T09:32:46;101247.22;;;13.58;63.34
72925;BME280;61070;50.794;7.054;2023-05-16T09:35:15;101242.88;;;13.54;60.53
72925;BME280;61070;50.794;7.054;2023-05-16T09:37:50;101236.47;;;13.66;61.73
72925;BME280;61070;50.794;7.054;2023-05-16T09:40:22;101238.06;;;13.18;59.05
72925;BME280;61070;50.794;7.054;2023-05-16T09:43:02;101240.06;;;13.63;58.95
72925;BME280;61070;50.794;7.054;2023-05-16T09:45:31;101240.53;;;13.33;58.03
72925;BME280;61070;50.794;7.054;2023-05-16T09:48:08;101237.09;;;13.26;56.49
72925;BME280;61070;50.794;7.054;2023-05-16T09:50:35;101247.00;;;13.12;56.59
72925;BME280;61070;50.794;7.054;2023-05-16T09:53:01;101241.53;;;13.26;55.80
72925;BME280;61070;50.794;7.054;2023-05-16T09:55:27;101231.22;;;13.63;56.32
72925;BME280;61070;50.794;7.054;2023-05-16T09:57:52;101237.81;;;13.91;55.46
72925;BME280;61070;50.794;7.054;2023-05-16T10:00:17;101242.44;;;13.82;55.73
72925;BME280;61070;50.794;7.054;2023-05-16T10:02:43;101239.50;;;13.43;57.05
72925;BME280;61070;50.794;7.054;2023-05-16T10:05:08;101244.84;;;13.42;56.64
72925;BME280;61070;50.794;7.054;2023-05-16T10:07:34;101237.50;;;13.57;56.47
72925;BME280;61070;50.794;7.054;2023-05-16T10:10:05;101234.66;;;13.68;54.28
72925;BME280;61070;50.794;7.054;2023-05-16T10:12:32;101235.22;;;13.88;54.92
72925;BME280;61070;50.794;7.054;2023-05-16T10:15:02;101243.38;;;13.78;56.80
72925;BME280;61070;50.794;7.054;2023-05-16T10:17:30;101235.34;;;13.24;56.26
72925;BME280;61070;50.794;7.054;2023-05-16T10:19:59;101245.88;;;12.61;55.95
72925;BME280;61070;50.794;7.054;2023-05-16T10:22:26;101239.81;;;13.22;57.07
72925;BME280;61070;50.794;7.054;2023-05-16T10:25:07;101235.72;;;13.59;54.81
72925;BME280;61070;50.794;7.054;2023-05-16T10:27:34;101237.16;;;13.79;52.63
72925;BME280;61070;50.794;7.054;2023-05-16T10:30:00;101240.56;;;13.88;53.83
72925;BME280;61070;50.794;7.054;2023-05-16T10:32:26;101243.50;;;13.72;54.56
72925;BME280;61070;50.794;7.054;2023-05-16T10:34:53;101237.56;;;13.54;55.02
72925;BME280;61070;50.794;7.054;2023-05-16T10:37:20;101230.13;;;13.75;55.13
72925;BME280;61070;50.794;7.054;2023-05-16T10:39:46;101229.00;;;13.89;53.64
72925;BME280;61070;50.794;7.054;2023-05-16T10:42:12;101219.16;;;14.42;55.08
72925;BME280;61070;50.794;7.054;2023-05-16T10:44:42;101217.53;;;14.80;52.42
72925;BME280;61070;50.794;7.054;2023-05-16T10:47:07;101224.38;;;14.92;52.17
72925;BME280;61070;50.794;7.054;2023-05-16T10:49:32;101219.19;;;14.41;49.68
72925;BME280;61070;50.794;7.054;2023-05-16T10:52:10;101227.72;;;14.61;51.45
72925;BME280;61070;50.794;7.054;2023-05-16T10:54:45;101219.38;;;14.76;51.93
72925;BME280;61070;50.794;7.054;2023-05-16T10:57:17;101217.25;;;14.92;51.29
72925;BME280;61070;50.794;7.054;2023-05-16T10:59:46;101221.47;;;14.62;50.30
72925;BME280;61070;50.794;7.054;2023-05-16T11:02:23;101232.84;;;14.22;48.88
72925;BME280;61070;50.794;7.054;2023-05-16T11:04:53;101229.63;;;14.04;51.55
72925;BME280;61070;50.794;7.054;2023-05-16T11:07:20;101228.47;;;14.20;52.66
72925;BME280;61070;50.794;7.054;2023-05-16T11:10:02;101222.00;;;14.78;52.97
72925;BME280;61070;50.794;7.054;2023-05-16T11:12:36;101223.47;;;14.93;52.44
72925;BME280;61070;50.794;7.054;2023-05-16T11:15:25;101219.22;;;14.84;49.56
72925;BME280;61070;50.794;7.054;2023-05-16T11:18:09;101227.38;;;15.18;48.47
72925;BME280;61070;50.794;7.054;2023-05-16T11:20:38;101223.75;;;15.21;47.20
72925;BME280;61070;50.794;7.054;2023-05-16T11:23:19;101224.22;;;15.38;48.66
72925;BME280;61070;50.794;7.054;2023-05-16T11:25:47;101229.53;;;15.78;46.90
72925;BME280;61070;50.794;7.054;2023-05-16T11:28:14;101221.19;;;15.55;48.06
72925;BME280;61070;50.794;7.054;2023-05-16T11:30:49;101223.81;;;15.56;49.01
72925;BME280;61070;50.794;7.054;2023-05-16T11:33:15;101221.69;;;14.93;46.24
72925;BME280;61070;50.794;7.054;2023-05-16T11:35:41;101223.97;;;15.11;46.97
72925;BME280;61070;50.794;7.054;2023-05-16T11:38:13;101227.59;;;15.09;47.55
72925;BME280;61070;50.794;7.054;2023-05-16T11:40:43;101226.03;;;14.99;47.94
72925;BME280;61070;50.794;7.054;2023-05-16T11:43:09;101222.28;;;14.66;49.80
72925;BME280;61070;50.794;7.054;2023-05-16T11:45:35;101228.53;;;15.06;48.75
72925;BME280;61070;50.794;7.054;2023-05-16T11:48:02;101231.56;;;15.28;48.09
72925;BME280;61070;50.794;7.054;2023-05-16T11:50:29;101225.97;;;15.79;49.28
72925;BME280;61070;50.794;7.054;2023-05-16T11:52:55;101231.38;;;15.76;47.81
72925;BME280;61070;50.794;7.054;2023-05-16T11:55:26;101230.66;;;16.04;45.91
72925;BME280;61070;50.794;7.054;2023-05-16T11:57:52;101228.50;;;16.18;45.91
72925;BME280;61070;50.794;7.054;2023-05-16T12:00:20;101232.59;;;16.64;46.55
72925;BME280;61070;50.794;7.054;2023-05-16T12:02:47;101224.84;;;16.22;46.19
72925;BME280;61070;50.794;7.054;2023-05-16T12:05:13;101231.13;;;15.85;46.04
72925;BME280;61070;50.794;7.054;2023-05-16T12:07:39;101222.44;;;15.77;47.24
72925;BME280;61070;50.794;7.054;2023-05-16T12:10:09;101228.66;;;15.40;47.13
72925;BME280;61070;50.794;7.054;2023-05-16T12:12:36;101233.59;;;15.17;48.32
72925;BME280;61070;50.794;7.054;2023-05-16T12:15:03;101233.91;;;14.62;50.29
72925;BME280;61070;50.794;7.054;2023-05-16T12:17:31;101237.34;;;14.67;51.49
72925;BME280;61070;50.794;7.054;2023-05-16T12:19:56;101234.03;;;14.99;50.74
72925;BME280;61070;50.794;7.054;2023-05-16T12:22:23;101236.34;;;15.14;49.97
72925;BME280;61070;50.794;7.054;2023-05-16T12:24:49;101229.47;;;15.04;50.34
72925;BME280;61070;50.794;7.054;2023-05-16T12:27:24;101229.41;;;15.07;50.65
72925;BME280;61070;50.794;7.054;2023-05-16T12:29:49;101225.28;;;14.47;51.02
72925;BME280;61070;50.794;7.054;2023-05-16T12:32:18;101224.25;;;14.56;52.54
72925;BME280;61070;50.794;7.054;2023-05-16T12:34:51;101220.84;;;14.91;51.59
72925;BME280;61070;50.794;7.054;2023-05-16T12:37:17;101221.56;;;14.99;51.39
72925;BME280;61070;50.794;7.054;2023-05-16T12:39:43;101218.22;;;15.28;48.79
72925;BME280;61070;50.794;7.054;2023-05-16T12:42:12;101228.28;;;15.56;50.18
72925;BME280;61070;50.794;7.054;2023-05-16T12:44:38;101240.72;;;15.94;48.46
72925;BME280;61070;50.794;7.054;2023-05-16T12:47:03;101230.53;;;16.10;48.47
72925;BME280;61070;50.794;7.054;2023-05-16T12:49:35;101231.88;;;15.92;49.21
72925;BME280;61070;50.794;7.054;2023-05-16T12:52:01;101221.81;;;16.36;48.37
72925;BME280;61070;50.794;7.054;2023-05-16T12:54:29;101234.50;;;15.93;46.23
72925;BME280;61070;50.794;7.054;2023-05-16T12:56:55;101228.22;;;15.94;47.10
72925;BME280;61070;50.794;7.054;2023-05-16T12:59:20;101230.34;;;16.16;47.86